Time;durP1;ratioP1;P1;durP2;ratioP2;P2;SDS_P1;SDS_P2;PMS_P1;PMS_P2;Temp;Humidity;BMP_temperature;BMP_pressure;BME280_temperature;BME280_humidity;BME280_pressure;Samples;Min_cycle;Max_cycle;Signal;HPM_P1;HPM_P2
2023/04/30 00:01:26;;;;;;;27.15;15.10;;;11.80;83.20;;;;;;4799814;29;20050;-92
2023/04/30 00:03:56;;;;;;;25.20;13.80;;;11.70;83.30;;;;;;4817505;29;20499;-92
2023/04/30 00:06:23;;;;;;;25.95;13.43;;;11.70;83.30;;;;;;4799682;29;20111;-92
2023/04/30 00:08:54;;;;;;;24.13;13.18;;;11.60;83.50;;;;;;4797218;29;20498;-92
2023/04/30 00:11:21;;;;;;;26.63;13.30;;;11.50;84.30;;;;;;4799042;29;20053;-92
2023/04/30 00:13:48;;;;;;;28.15;13.98;;;11.50;84.30;;;;;;4796590;29;20053;-92
2023/04/30 00:16:15;;;;;;;28.65;14.88;;;11.50;84.10;;;;;;4801366;29;20467;-91
2023/04/30 00:18:43;;;;;;;30.65;15.43;;;11.40;84.50;;;;;;4792522;29;20051;-92
2023/04/30 00:21:10;;;;;;;29.58;15.90;;;11.30;84.80;;;;;;4798766;29;20677;-92
2023/04/30 00:23:37;;;;;;;30.97;16.67;;;11.30;84.30;;;;;;4797368;29;20050;-92
2023/04/30 00:26:04;;;;;;;33.20;16.38;;;11.30;84.40;;;;;;4797288;29;20058;-92
2023/04/30 00:28:31;;;;;;;32.15;16.98;;;11.30;84.30;;;;;;4798560;29;20054;-92
2023/04/30 00:30:58;;;;;;;34.42;16.60;;;11.30;84.10;;;;;;4801850;29;20099;-91
2023/04/30 00:33:25;;;;;;;33.30;17.55;;;11.30;84.30;;;;;;4815530;29;20501;-91
2023/04/30 00:35:52;;;;;;;33.63;17.87;;;11.30;84.20;;;;;;4799567;29;20046;-92
2023/04/30 00:38:19;;;;;;;36.05;18.08;;;11.20;84.20;;;;;;4800909;29;20467;-92
2023/04/30 00:40:46;;;;;;;33.97;17.08;;;11.20;84.50;;;;;;4800415;29;20055;-92
2023/04/30 00:43:13;;;;;;;35.20;18.08;;;11.10;84.30;;;;;;4799495;29;20050;-92
2023/04/30 00:45:40;;;;;;;40.97;19.23;;;11.20;84.30;;;;;;4798328;29;20077;-92
2023/04/30 00:48:07;;;;;;;35.80;18.00;;;11.20;84.30;;;;;;4798211;29;20050;-91
2023/04/30 00:50:35;;;;;;;36.17;17.90;;;11.20;84.50;;;;;;4801361;29;20118;-92
2023/04/30 00:53:03;;;;;;;36.17;19.40;;;11.20;84.40;;;;;;4799463;29;20410;-92
2023/04/30 00:55:30;;;;;;;37.80;20.40;;;11.30;84.30;;;;;;4801533;29;20057;-93
2023/04/30 00:57:59;;;;;;;37.22;19.88;;;11.30;83.90;;;;;;4798813;29;20054;-92
2023/04/30 01:00:27;;;;;;;39.60;20.90;;;11.30;83.60;;;;;;4794232;29;20047;-91
2023/04/30 01:02:55;;;;;;;40.17;20.10;;;11.30;83.80;;;;;;4796925;29;20058;-91
2023/04/30 01:05:22;;;;;;;42.80;22.05;;;11.30;83.70;;;;;;4801267;29;20047;-92
2023/04/30 01:07:50;;;;;;;41.72;20.95;;;11.20;83.90;;;;;;4799659;29;20054;-91
2023/04/30 01:10:18;;;;;;;42.15;22.50;;;11.30;83.90;;;;;;4805564;29;20043;-92
2023/04/30 01:13:07;;;;;;;41.97;21.43;;;11.30;83.90;;;;;;4799607;29;20133;-91
2023/04/30 01:15:44;;;;;;;41.65;21.52;;;11.20;83.80;;;;;;4772748;29;20050;-92
2023/04/30 01:18:41;;;;;;;40.67;21.77;;;11.20;83.90;;;;;;4794840;29;20051;-91
2023/04/30 01:21:08;;;;;;;39.72;21.20;;;11.20;84.10;;;;;;4776274;29;20057;-91
2023/04/30 01:23:50;;;;;;;43.10;22.10;;;11.20;83.80;;;;;;4797899;29;20081;-91
2023/04/30 01:26:51;;;;;;;41.23;22.53;;;11.20;84.10;;;;;;4799130;29;20046;-92
2023/04/30 01:29:20;;;;;;;43.35;23.08;;;11.30;83.90;;;;;;4801675;29;20137;-91
2023/04/30 01:31:47;;;;;;;48.40;26.50;;;11.20;84.10;;;;;;4801562;29;20042;-92
2023/04/30 01:34:14;;;;;;;45.03;23.80;;;11.10;84.30;;;;;;4801657;29;20084;-91
2023/04/30 01:36:55;;;;;;;44.78;23.23;;;11.10;84.40;;;;;;4787961;29;20075;-92
2023/04/30 01:39:31;;;;;;;42.80;22.33;;;11.10;84.60;;;;;;4801085;29;20051;-91
2023/04/30 01:42:10;;;;;;;39.50;21.63;;;11.10;84.30;;;;;;4802474;29;20060;-91
2023/04/30 01:44:58;;;;;;;37.17;22.05;;;11.10;84.40;;;;;;4802320;29;20051;-92
2023/04/30 01:47:39;;;;;;;40.33;22.88;;;11.10;84.20;;;;;;4798615;29;20224;-91
2023/04/30 01:50:23;;;;;;;37.10;21.48;;;11.10;84.70;;;;;;4801252;29;20051;-92
2023/04/30 01:52:57;;;;;;;38.83;21.13;;;11.00;84.70;;;;;;4798341;29;20080;-91
2023/04/30 01:55:50;;;;;;;41.20;21.67;;;11.00;84.90;;;;;;4799449;29;20055;-91
2023/04/30 01:58:21;;;;;;;41.05;22.48;;;11.00;85.10;;;;;;4793310;29;20421;-92
2023/04/30 02:00:48;;;;;;;41.47;23.20;;;11.00;85.10;;;;;;4804658;29;20133;-92
2023/04/30 02:03:15;;;;;;;37.83;21.63;;;11.00;85.00;;;;;;4798616;29;20555;-92
2023/04/30 02:05:43;;;;;;;35.03;20.73;;;11.00;84.90;;;;;;4790756;29;20050;-92
2023/04/30 02:08:10;;;;;;;35.78;20.45;;;11.00;85.10;;;;;;4797633;29;20130;-92
2023/04/30 02:10:37;;;;;;;39.20;21.95;;;11.00;85.00;;;;;;4805181;29;20042;-91
2023/04/30 02:13:04;;;;;;;33.28;18.98;;;11.00;85.30;;;;;;4790495;29;20047;-92
2023/04/30 02:15:31;;;;;;;32.15;18.42;;;11.00;85.00;;;;;;4801034;29;20046;-92
2023/04/30 02:17:58;;;;;;;35.97;19.33;;;11.00;85.20;;;;;;4802582;29;20051;-92
2023/04/30 02:20:26;;;;;;;34.63;19.73;;;11.00;85.40;;;;;;4783293;29;20046;-92
2023/04/30 02:22:53;;;;;;;34.95;19.45;;;11.00;85.20;;;;;;4812779;29;20557;-92
2023/04/30 02:25:20;;;;;;;34.83;19.27;;;11.00;85.20;;;;;;4790157;29;20050;-92
2023/04/30 02:27:49;;;;;;;32.42;19.15;;;11.00;85.20;;;;;;4796876;29;20095;-92
2023/04/30 02:30:16;;;;;;;32.97;18.23;;;11.00;85.30;;;;;;4803664;29;20050;-92
2023/04/30 02:32:43;;;;;;;31.92;18.45;;;10.90;85.20;;;;;;4799422;29;20050;-92
2023/04/30 02:35:10;;;;;;;32.20;18.95;;;10.80;85.40;;;;;;4798060;29;20047;-92
2023/04/30 02:37:37;;;;;;;29.88;17.20;;;10.70;85.80;;;;;;4806200;29;20071;-91
2023/04/30 02:40:05;;;;;;;31.50;17.67;;;10.70;85.70;;;;;;4787168;29;20058;-92
2023/04/30 02:42:32;;;;;;;36.23;20.23;;;10.70;85.90;;;;;;4783551;29;20046;-91
2023/04/30 02:44:59;;;;;;;30.50;17.77;;;10.80;86.00;;;;;;4804379;29;20405;-92
2023/04/30 02:47:26;;;;;;;29.77;17.25;;;10.80;85.50;;;;;;4796954;29;20039;-92
2023/04/30 02:49:53;;;;;;;27.80;15.90;;;10.70;85.60;;;;;;4777748;29;20054;-92
2023/04/30 02:52:21;;;;;;;22.90;13.02;;;10.70;85.40;;;;;;4794054;29;20129;-90
2023/04/30 02:54:48;;;;;;;22.27;12.57;;;10.60;85.40;;;;;;4797940;29;20137;-91
2023/04/30 02:57:15;;;;;;;26.33;15.65;;;10.50;84.50;;;;;;4794972;29;20058;-91
2023/04/30 02:59:44;;;;;;;33.38;17.50;;;10.50;84.30;;;;;;4817588;29;20056;-91
2023/04/30 03:02:12;;;;;;;25.42;14.45;;;10.30;84.60;;;;;;4820111;29;20049;-91
2023/04/30 03:04:40;;;;;;;23.17;13.52;;;10.20;84.00;;;;;;4819892;29;20144;-91
2023/04/30 03:07:07;;;;;;;25.20;14.97;;;10.20;84.10;;;;;;4814277;29;20165;-91
2023/04/30 03:09:35;;;;;;;24.55;15.20;;;10.20;84.30;;;;;;4817988;29;20046;-91
2023/04/30 03:12:02;;;;;;;26.40;15.65;;;10.20;84.20;;;;;;4817534;29;20103;-92
2023/04/30 03:14:29;;;;;;;27.98;15.30;;;10.10;83.90;;;;;;4829423;29;20573;-91
2023/04/30 03:16:56;;;;;;;28.83;15.45;;;10.00;84.00;;;;;;4815405;29;20059;-91
2023/04/30 03:19:24;;;;;;;29.83;16.67;;;10.00;84.10;;;;;;4821490;29;20055;-91
2023/04/30 03:21:51;;;;;;;25.23;14.32;;;9.90;84.00;;;;;;4827894;29;20050;-91
2023/04/30 03:24:18;;;;;;;27.38;15.52;;;9.90;83.80;;;;;;4813973;29;20497;-91
2023/04/30 03:26:46;;;;;;;24.23;13.48;;;9.80;83.70;;;;;;4827413;29;20464;-91
2023/04/30 03:29:13;;;;;;;27.23;14.95;;;9.70;83.50;;;;;;4831385;29;20517;-91
2023/04/30 03:31:40;;;;;;;26.20;14.13;;;9.60;83.70;;;;;;4815045;29;20042;-91
2023/04/30 03:34:07;;;;;;;25.75;14.30;;;9.50;84.00;;;;;;4816061;29;20054;-91
2023/04/30 03:36:34;;;;;;;24.33;15.30;;;9.50;83.60;;;;;;4813295;29;20498;-91
2023/04/30 03:39:02;;;;;;;26.80;14.80;;;9.50;83.30;;;;;;4826998;29;20119;-91
2023/04/30 03:41:29;;;;;;;25.77;15.35;;;9.50;83.60;;;;;;4823844;29;20737;-92
2023/04/30 03:43:56;;;;;;;26.13;14.30;;;9.50;83.50;;;;;;4817145;29;20054;-91
2023/04/30 03:46:23;;;;;;;28.25;15.57;;;9.40;83.00;;;;;;4830067;29;20083;-91
2023/04/30 03:48:50;;;;;;;30.08;14.95;;;9.30;83.30;;;;;;4815639;29;20060;-91
2023/04/30 03:51:20;;;;;;;24.35;14.18;;;9.20;83.40;;;;;;4831486;29;20051;-90
2023/04/30 03:53:47;;;;;;;22.48;12.75;;;9.20;83.30;;;;;;4817654;29;20045;-91
2023/04/30 03:56:15;;;;;;;25.43;14.10;;;9.20;83.50;;;;;;4821756;29;20049;-91
2023/04/30 03:58:42;;;;;;;23.92;13.10;;;9.30;83.60;;;;;;4820129;29;20055;-90
2023/04/30 04:01:09;;;;;;;22.48;13.93;;;9.40;82.80;;;;;;4818717;29;20129;-91
2023/04/30 04:03:36;;;;;;;19.58;11.50;;;9.40;82.30;;;;;;4816674;29;20098;-91
2023/04/30 04:06:04;;;;;;;28.17;12.95;;;9.40;82.10;;;;;;4815464;29;20073;-91
2023/04/30 04:08:31;;;;;;;24.77;13.53;;;9.30;82.40;;;;;;4818904;29;20042;-91
2023/04/30 04:10:58;;;;;;;27.35;12.60;;;9.20;82.50;;;;;;4818977;29;20508;-91
2023/04/30 04:13:25;;;;;;;24.75;13.43;;;9.20;82.40;;;;;;4813297;29;20042;-91
2023/04/30 04:15:52;;;;;;;22.95;12.77;;;9.30;82.40;;;;;;4828205;29;20051;-91
2023/04/30 04:18:20;;;;;;;22.90;12.85;;;9.40;82.20;;;;;;4829748;29;20069;-91
2023/04/30 04:20:47;;;;;;;26.63;13.33;;;9.30;82.30;;;;;;4818537;29;20042;-91
2023/04/30 04:23:15;;;;;;;22.77;12.35;;;9.30;82.30;;;;;;4813091;29;20106;-91
2023/04/30 04:25:43;;;;;;;23.30;12.00;;;9.40;81.80;;;;;;4815706;29;20129;-91
2023/04/30 04:28:10;;;;;;;21.15;11.95;;;9.40;81.60;;;;;;4828935;29;20137;-91
2023/04/30 04:30:38;;;;;;;22.98;13.35;;;9.40;81.40;;;;;;4809559;29;20050;-91
2023/04/30 04:33:07;;;;;;;24.33;12.90;;;9.40;82.00;;;;;;4811272;29;20056;-91
2023/04/30 04:35:35;;;;;;;24.63;13.25;;;9.40;81.70;;;;;;4818237;29;20042;-91
2023/04/30 04:38:02;;;;;;;22.40;12.32;;;9.50;81.50;;;;;;4813876;29;20054;-91
2023/04/30 04:40:29;;;;;;;26.92;12.75;;;9.50;81.40;;;;;;4817392;29;20052;-91
2023/04/30 04:42:57;;;;;;;24.45;13.60;;;9.50;81.30;;;;;;4815656;29;20464;-91
2023/04/30 04:45:24;;;;;;;23.17;12.53;;;9.50;81.80;;;;;;4814490;29;20050;-90
2023/04/30 04:47:52;;;;;;;24.98;13.40;;;9.50;81.80;;;;;;4827159;29;20386;-90
2023/04/30 04:50:19;;;;;;;25.77;14.38;;;9.70;81.50;;;;;;4828827;29;20050;-91
2023/04/30 04:52:47;;;;;;;24.75;13.73;;;9.70;81.70;;;;;;4812032;29;20512;-91
2023/04/30 04:55:14;;;;;;;23.67;13.77;;;9.80;81.90;;;;;;4810628;29;20057;-91
2023/04/30 04:57:42;;;;;;;26.77;14.07;;;9.80;81.70;;;;;;4814492;29;20065;-91
2023/04/30 05:00:10;;;;;;;26.50;14.55;;;9.90;81.90;;;;;;4822775;29;20054;-91
2023/04/30 05:02:37;;;;;;;23.75;12.93;;;9.90;81.90;;;;;;4823233;29;20091;-91
2023/04/30 05:05:05;;;;;;;27.17;14.40;;;10.00;82.00;;;;;;4822662;29;20066;-92
2023/04/30 05:07:33;;;;;;;24.98;13.88;;;10.00;81.90;;;;;;4819218;29;20054;-92
2023/04/30 05:10:01;;;;;;;26.30;14.13;;;10.00;81.80;;;;;;4818473;29;20540;-92
2023/04/30 05:12:29;;;;;;;25.55;13.18;;;10.00;81.60;;;;;;4819719;29;20108;-91
2023/04/30 05:14:56;;;;;;;25.63;13.55;;;10.00;81.30;;;;;;4827519;29;20046;-92
2023/04/30 05:17:23;;;;;;;23.50;12.98;;;10.00;81.20;;;;;;4816225;29;20053;-91
2023/04/30 05:19:51;;;;;;;23.58;13.55;;;10.10;81.00;;;;;;4813409;29;20457;-91
2023/04/30 05:22:18;;;;;;;22.80;12.97;;;10.10;80.90;;;;;;4822946;29;20043;-91
2023/04/30 05:24:44;;;;;;;24.73;13.30;;;10.10;80.80;;;;;;4812849;29;20037;-91
2023/04/30 05:27:11;;;;;;;25.70;14.13;;;10.10;80.90;;;;;;4817986;29;20054;-91
2023/04/30 05:29:38;;;;;;;24.80;14.18;;;10.10;80.70;;;;;;4823182;29;20042;-91
2023/04/30 05:32:06;;;;;;;24.58;13.68;;;10.10;80.90;;;;;;4820874;29;20493;-91
2023/04/30 05:34:34;;;;;;;24.40;13.50;;;10.10;81.40;;;;;;4820432;29;20080;-91
2023/04/30 05:37:02;;;;;;;23.17;13.18;;;10.10;81.40;;;;;;4812563;29;20107;-91
2023/04/30 05:39:29;;;;;;;24.15;13.18;;;10.10;80.90;;;;;;4817521;29;20096;-91
2023/04/30 05:41:56;;;;;;;21.90;12.55;;;10.10;81.20;;;;;;4814815;29;20050;-91
2023/04/30 05:44:23;;;;;;;25.33;11.90;;;10.10;81.20;;;;;;4816556;29;20046;-92
2023/04/30 05:46:50;;;;;;;26.23;13.93;;;10.10;80.60;;;;;;4817412;29;20394;-91
2023/04/30 05:49:17;;;;;;;23.20;12.18;;;10.10;80.50;;;;;;4820223;29;20137;-91
2023/04/30 05:51:44;;;;;;;20.92;12.57;;;10.10;81.00;;;;;;4817854;29;20046;-91
2023/04/30 05:54:11;;;;;;;24.55;13.27;;;10.10;81.00;;;;;;4817716;29;20085;-91
2023/04/30 05:56:38;;;;;;;25.00;13.93;;;10.20;81.10;;;;;;4817931;29;20046;-92
2023/04/30 05:59:05;;;;;;;24.17;13.63;;;10.20;81.20;;;;;;4830465;29;20107;-92
2023/04/30 06:01:32;;;;;;;24.45;12.57;;;10.30;81.10;;;;;;4818648;29;20107;-91
2023/04/30 06:04:00;;;;;;;22.80;12.02;;;10.40;79.80;;;;;;4816971;29;20046;-91
2023/04/30 06:06:27;;;;;;;22.92;12.93;;;10.40;79.70;;;;;;4817281;29;20088;-91
2023/04/30 06:08:54;;;;;;;23.92;12.32;;;10.40;80.30;;;;;;4831643;29;20042;-91
2023/04/30 06:11:21;;;;;;;20.53;11.63;;;10.50;80.10;;;;;;4812657;29;20058;-91
2023/04/30 06:13:48;;;;;;;25.13;11.65;;;10.60;79.60;;;;;;4815257;29;20083;-92
2023/04/30 06:16:15;;;;;;;20.15;11.60;;;10.60;79.20;;;;;;4815462;29;20447;-91
2023/04/30 06:18:43;;;;;;;21.50;11.50;;;10.70;78.90;;;;;;4816245;29;20052;-92
2023/04/30 06:21:10;;;;;;;20.10;11.80;;;10.70;79.00;;;;;;4831630;29;20058;-92
2023/04/30 06:23:37;;;;;;;23.33;12.93;;;10.70;79.40;;;;;;4817693;29;20133;-91
2023/04/30 06:26:04;;;;;;;24.25;13.02;;;10.80;79.50;;;;;;4830800;29;20054;-92
2023/04/30 06:28:31;;;;;;;20.20;12.20;;;10.70;78.90;;;;;;4815458;29;20129;-92
2023/04/30 06:30:58;;;;;;;22.20;11.65;;;10.70;79.30;;;;;;4813655;29;20050;-92
2023/04/30 06:33:25;;;;;;;20.33;11.13;;;10.70;78.90;;;;;;4820023;29;20069;-92
2023/04/30 06:35:54;;;;;;;17.37;9.97;;;10.80;78.50;;;;;;4815933;29;20054;-92
2023/04/30 06:38:21;;;;;;;18.08;10.52;;;10.80;77.70;;;;;;4801342;29;20133;-91
2023/04/30 06:40:48;;;;;;;20.88;12.13;;;10.70;76.60;;;;;;4813944;29;20050;-92
2023/04/30 06:43:16;;;;;;;23.02;11.57;;;10.80;78.10;;;;;;4806078;29;20054;-92
2023/04/30 06:45:43;;;;;;;23.60;12.57;;;10.70;77.20;;;;;;4810595;29;20050;-92
2023/04/30 06:48:10;;;;;;;21.57;10.93;;;10.70;78.20;;;;;;4818857;29;20447;-92
2023/04/30 06:50:43;;;;;;;21.92;11.25;;;10.80;77.80;;;;;;4815050;29;20066;-92
2023/04/30 06:53:11;;;;;;;21.50;12.10;;;10.80;77.90;;;;;;4817352;29;20046;-91
2023/04/30 06:55:40;;;;;;;22.10;11.88;;;10.90;78.50;;;;;;4831695;29;20045;-91
2023/04/30 06:58:07;;;;;;;19.33;11.95;;;10.90;77.50;;;;;;4812694;29;20058;-92
2023/04/30 07:00:34;;;;;;;21.30;10.77;;;10.90;77.40;;;;;;4815598;29;20518;-91
2023/04/30 07:03:03;;;;;;;19.63;11.40;;;10.90;76.40;;;;;;4818093;29;20062;-91
2023/04/30 07:05:30;;;;;;;21.55;11.02;;;10.90;76.50;;;;;;4821809;29;20054;-92
2023/04/30 07:08:00;;;;;;;21.58;11.45;;;10.90;75.80;;;;;;4814139;29;20510;-91
2023/04/30 07:10:27;;;;;;;17.98;9.80;;;11.00;76.90;;;;;;4819939;29;20111;-91
2023/04/30 07:12:54;;;;;;;17.20;9.50;;;11.00;76.20;;;;;;4815517;29;20050;-91
2023/04/30 07:15:21;;;;;;;18.77;9.90;;;11.00;75.80;;;;;;4815373;29;20098;-92
2023/04/30 07:17:48;;;;;;;18.20;9.68;;;11.10;75.00;;;;;;4823027;29;20498;-92
2023/04/30 07:20:15;;;;;;;18.73;10.95;;;11.10;74.60;;;;;;4810265;29;20061;-91
2023/04/30 07:22:44;;;;;;;17.48;9.52;;;11.20;75.60;;;;;;4815757;29;20049;-91
2023/04/30 07:25:12;;;;;;;19.13;10.23;;;11.30;75.00;;;;;;4818653;29;20053;-91
2023/04/30 07:27:39;;;;;;;19.58;9.43;;;11.40;74.50;;;;;;4813802;29;20057;-91
2023/04/30 07:30:10;;;;;;;18.67;9.55;;;11.40;74.10;;;;;;4798934;29;20050;-91
2023/04/30 07:32:39;;;;;;;16.98;8.65;;;11.40;72.60;;;;;;4832516;29;20047;-90
2023/04/30 07:35:07;;;;;;;15.52;9.60;;;11.40;72.50;;;;;;4828441;29;20060;-91
2023/04/30 07:37:34;;;;;;;16.97;9.17;;;11.40;73.20;;;;;;4813454;29;20039;-91
2023/04/30 07:40:03;;;;;;;16.98;9.55;;;11.40;73.80;;;;;;4803615;29;20062;-90
2023/04/30 07:42:30;;;;;;;18.60;10.18;;;11.40;73.80;;;;;;4820315;29;21101;-90
2023/04/30 07:44:57;;;;;;;16.80;8.88;;;11.50;72.30;;;;;;4831923;29;20046;-91
2023/04/30 07:47:24;;;;;;;17.42;9.68;;;11.50;72.40;;;;;;4824718;29;20071;-91
2023/04/30 07:49:51;;;;;;;15.93;8.97;;;11.50;72.60;;;;;;4815914;29;20049;-91
2023/04/30 07:52:19;;;;;;;15.27;8.90;;;11.50;72.70;;;;;;4826092;29;20046;-92
2023/04/30 07:54:46;;;;;;;17.00;9.57;;;11.50;71.50;;;;;;4815645;29;20099;-94
2023/04/30 07:57:13;;;;;;;16.83;9.25;;;11.50;71.70;;;;;;4814906;29;20133;-90
2023/04/30 07:59:40;;;;;;;15.13;8.98;;;11.60;71.40;;;;;;4812494;29;20065;-90
2023/04/30 08:02:08;;;;;;;15.70;9.33;;;11.80;71.20;;;;;;4829543;29;20081;-91
2023/04/30 08:04:35;;;;;;;20.35;9.38;;;11.80;70.10;;;;;;4811899;29;20486;-91
2023/04/30 08:07:03;;;;;;;18.52;10.55;;;11.90;70.30;;;;;;4821633;29;20097;-90
2023/04/30 08:09:30;;;;;;;17.10;10.10;;;11.90;70.30;;;;;;4811287;29;20060;-90
2023/04/30 08:11:57;;;;;;;16.73;9.30;;;11.90;69.40;;;;;;4829349;29;20110;-92
2023/04/30 08:14:24;;;;;;;16.10;9.87;;;11.80;68.60;;;;;;4815312;29;20577;-91
2023/04/30 08:16:51;;;;;;;17.25;10.05;;;11.80;69.10;;;;;;4802755;29;20065;-92
2023/04/30 08:19:18;;;;;;;17.60;9.43;;;12.00;70.40;;;;;;4807891;29;20118;-91
2023/04/30 08:21:45;;;;;;;18.58;10.48;;;12.00;69.50;;;;;;4815317;29;20085;-91
2023/04/30 08:24:12;;;;;;;16.67;9.80;;;12.10;69.60;;;;;;4815218;29;20046;-89
2023/04/30 08:26:39;;;;;;;15.70;9.37;;;12.10;69.00;;;;;;4813564;29;20185;-88
2023/04/30 08:29:09;;;;;;;16.33;9.45;;;12.00;70.10;;;;;;4827359;29;20058;-91
2023/04/30 08:31:36;;;;;;;16.50;9.20;;;12.00;67.40;;;;;;4812651;29;20046;-91
2023/04/30 08:34:03;;;;;;;15.68;9.02;;;11.90;68.90;;;;;;4817873;29;20050;-92
2023/04/30 08:36:30;;;;;;;17.13;9.30;;;11.80;67.40;;;;;;4816324;29;20051;-92
2023/04/30 08:38:57;;;;;;;17.63;9.07;;;11.70;68.00;;;;;;4818531;29;20490;-93
2023/04/30 08:41:25;;;;;;;16.88;9.27;;;11.80;68.60;;;;;;4817942;29;20053;-92
2023/04/30 08:43:53;;;;;;;14.27;8.68;;;11.80;67.90;;;;;;4815885;29;20114;-92
2023/04/30 08:46:22;;;;;;;16.50;9.32;;;11.90;68.00;;;;;;4819393;29;20058;-92
2023/04/30 08:48:49;;;;;;;15.75;9.70;;;11.80;67.60;;;;;;4816116;29;20046;-91
2023/04/30 08:51:16;;;;;;;15.57;9.23;;;11.80;69.10;;;;;;4814215;29;20046;-91
2023/04/30 08:53:44;;;;;;;18.08;8.65;;;11.60;66.00;;;;;;4802492;29;20050;-91
2023/04/30 08:56:11;;;;;;;14.73;8.98;;;11.50;67.70;;;;;;4796029;29;20138;-91
2023/04/30 08:58:39;;;;;;;17.70;9.95;;;11.50;67.90;;;;;;4813925;29;20058;-92
2023/04/30 09:01:08;;;;;;;13.20;8.23;;;11.40;68.00;;;;;;4796681;29;20544;-92
2023/04/30 09:03:36;;;;;;;14.77;8.77;;;11.40;67.50;;;;;;4824913;29;20054;-94
2023/04/30 09:06:03;;;;;;;16.42;8.18;;;11.40;68.60;;;;;;4811852;29;20090;-94
2023/04/30 09:08:48;;;;;;;15.15;8.90;;;11.40;66.80;;;;;;4810957;29;20054;-94
2023/04/30 09:11:29;;;;;;;18.90;8.75;;;11.50;66.80;;;;;;4809330;29;20047;-94
2023/04/30 09:17:40;;;;;;;16.23;9.23;;;11.50;67.20;;;;;;4824042;29;20041;-94
2023/04/30 09:20:12;;;;;;;18.40;10.18;;;11.60;67.30;;;;;;4794835;29;20153;-95
2023/04/30 09:22:55;;;;;;;17.20;9.98;;;11.70;66.50;;;;;;4810346;29;20054;-95
2023/04/30 09:25:39;;;;;;;16.23;9.40;;;11.80;67.10;;;;;;4800581;29;20059;-93
2023/04/30 09:28:10;;;;;;;18.02;9.98;;;12.00;67.50;;;;;;4816374;29;20051;-93
2023/04/30 09:30:39;;;;;;;16.57;9.10;;;12.10;67.20;;;;;;4817044;29;20070;-94
2023/04/30 09:33:08;;;;;;;15.00;9.02;;;12.30;67.10;;;;;;4805764;29;20082;-94
2023/04/30 09:35:40;;;;;;;17.20;10.50;;;12.30;65.20;;;;;;4817754;29;20046;-93
2023/04/30 09:38:32;;;;;;;16.13;9.10;;;12.30;66.10;;;;;;4813265;29;20145;-93
2023/04/30 09:41:00;;;;;;;15.70;9.43;;;12.20;65.80;;;;;;4813191;29;20157;-93
2023/04/30 09:43:29;;;;;;;16.70;9.90;;;12.10;66.60;;;;;;4798012;29;20074;-93
2023/04/30 09:45:58;;;;;;;17.73;10.65;;;12.10;66.10;;;;;;4799813;29;20596;-93
2023/04/30 09:48:27;;;;;;;18.13;10.68;;;12.00;65.90;;;;;;4800571;29;20054;-92
2023/04/30 09:50:55;;;;;;;16.02;10.52;;;12.00;67.70;;;;;;4802574;29;20054;-92
2023/04/30 09:53:23;;;;;;;17.70;10.88;;;12.00;66.20;;;;;;4802082;29;20055;-92
2023/04/30 09:55:51;;;;;;;19.13;10.37;;;12.00;68.30;;;;;;4820625;29;20110;-93
2023/04/30 09:58:19;;;;;;;16.70;10.13;;;12.00;67.60;;;;;;4804739;29;20062;-94
2023/04/30 10:00:48;;;;;;;18.95;10.40;;;12.00;66.50;;;;;;4820235;29;20054;-93
2023/04/30 10:03:16;;;;;;;20.48;9.70;;;12.20;67.00;;;;;;4819477;29;20066;-93
2023/04/30 10:05:46;;;;;;;18.63;9.75;;;12.10;66.40;;;;;;4819961;29;20065;-92
2023/04/30 10:08:27;;;;;;;16.77;10.07;;;12.20;66.10;;;;;;4823242;29;20050;-92
2023/04/30 10:11:01;;;;;;;16.38;8.98;;;12.20;65.70;;;;;;4821798;29;20505;-93
2023/04/30 10:13:53;;;;;;;14.05;8.43;;;12.30;64.80;;;;;;4819813;29;20054;-93
2023/04/30 10:16:29;;;;;;;18.73;9.73;;;12.40;63.60;;;;;;4804318;29;20084;-93
2023/04/30 10:19:02;;;;;;;15.30;9.00;;;12.50;64.80;;;;;;4822628;29;20084;-93
2023/04/30 10:21:31;;;;;;;14.87;8.97;;;12.80;64.90;;;;;;4806447;29;20054;-94
2023/04/30 10:23:59;;;;;;;14.13;7.35;;;12.80;63.90;;;;;;4806561;29;20054;-92
2023/04/30 10:26:28;;;;;;;11.55;7.22;;;12.90;62.30;;;;;;4823237;29;20054;-93
2023/04/30 10:28:59;;;;;;;14.85;7.88;;;13.10;62.00;;;;;;4807370;29;20055;-92
2023/04/30 10:35:39;;;;;;;11.17;6.50;;;13.50;59.80;;;;;;4835754;29;20064;-92
2023/04/30 10:38:17;;;;;;;8.93;5.35;;;13.50;59.20;;;;;;4820198;29;20047;-94
2023/04/30 10:40:48;;;;;;;10.90;6.60;;;13.50;57.70;;;;;;4820356;29;20078;-93
2023/04/30 10:43:20;;;;;;;12.55;6.75;;;13.40;58.70;;;;;;4820945;29;20121;-93
2023/04/30 10:45:49;;;;;;;11.02;6.80;;;13.20;58.30;;;;;;4821313;29;20054;-93
2023/04/30 10:48:24;;;;;;;12.33;7.53;;;13.10;59.40;;;;;;4822891;29;20047;-94
2023/04/30 10:50:57;;;;;;;14.85;8.25;;;13.00;59.30;;;;;;4823298;29;20061;-93
2023/04/30 10:53:35;;;;;;;11.27;6.57;;;12.90;58.80;;;;;;4808566;29;20043;-94
2023/04/30 10:56:07;;;;;;;14.70;7.63;;;13.10;60.20;;;;;;4806270;29;20056;-92
2023/04/30 10:58:37;;;;;;;12.98;6.95;;;13.30;61.20;;;;;;4836397;29;20064;-93
2023/04/30 11:01:12;;;;;;;13.47;7.20;;;13.70;60.00;;;;;;4822334;29;20069;-93
2023/04/30 11:03:41;;;;;;;11.45;6.65;;;13.90;56.70;;;;;;4808359;29;20058;-93
2023/04/30 11:06:14;;;;;;;12.77;7.72;;;14.10;57.40;;;;;;4821670;29;20149;-94
2023/04/30 11:08:44;;;;;;;11.48;6.82;;;14.10;56.50;;;;;;4817041;29;20509;-93
2023/04/30 11:11:19;;;;;;;11.57;6.50;;;14.00;58.30;;;;;;4816708;29;20055;-92
2023/04/30 11:13:59;;;;;;;11.97;6.13;;;13.90;55.40;;;;;;4821112;29;20093;-93
2023/04/30 11:16:34;;;;;;;11.32;6.00;;;13.80;56.90;;;;;;4820182;29;20050;-94
2023/04/30 11:19:13;;;;;;;10.00;5.65;;;13.90;56.60;;;;;;4822276;29;20149;-92
2023/04/30 11:22:00;;;;;;;12.13;6.00;;;13.90;57.30;;;;;;4803570;29;20093;-93
2023/04/30 11:24:49;;;;;;;11.98;6.30;;;13.80;56.00;;;;;;4821355;29;20100;-93
2023/04/30 11:27:25;;;;;;;13.37;6.90;;;13.70;56.20;;;;;;4820522;29;20061;-93
2023/04/30 11:29:54;;;;;;;11.90;6.88;;;13.80;56.60;;;;;;4823279;29;20149;-93
2023/04/30 11:32:25;;;;;;;11.95;6.80;;;13.80;58.30;;;;;;4820323;29;20054;-93
2023/04/30 11:34:53;;;;;;;11.55;7.13;;;14.00;57.80;;;;;;4806076;29;20047;-93
2023/04/30 11:37:33;;;;;;;10.73;5.70;;;14.40;57.00;;;;;;4819997;29;20050;-92
2023/04/30 11:40:06;;;;;;;11.47;5.97;;;14.70;53.70;;;;;;4807288;29;20058;-93
2023/04/30 11:42:34;;;;;;;11.23;5.80;;;14.90;52.40;;;;;;4807061;29;20054;-93
2023/04/30 11:45:02;;;;;;;9.75;6.32;;;14.80;52.00;;;;;;4821320;29;20509;-92
2023/04/30 11:47:51;;;;;;;10.52;6.00;;;14.60;53.90;;;;;;4819672;29;20058;-93
2023/04/30 11:50:25;;;;;;;10.63;6.28;;;14.60;54.30;;;;;;4803421;29;20047;-93
2023/04/30 11:52:57;;;;;;;10.40;6.23;;;14.50;54.00;;;;;;4819097;29;20046;-92
2023/04/30 11:55:26;;;;;;;12.75;5.85;;;14.70;54.40;;;;;;4805218;29;20155;-93
2023/04/30 11:57:56;;;;;;;12.57;6.43;;;15.00;54.40;;;;;;4819600;29;20078;-93
2023/04/30 12:00:28;;;;;;;12.38;5.75;;;15.10;52.60;;;;;;4819598;29;20079;-93
2023/04/30 12:02:58;;;;;;;11.18;5.80;;;15.40;53.20;;;;;;4820028;29;20462;-92
2023/04/30 12:05:27;;;;;;;12.53;5.07;;;15.50;51.80;;;;;;4820647;29;20152;-92
2023/04/30 12:08:11;;;;;;;9.13;5.03;;;15.50;51.50;;;;;;4816714;29;20061;-93
2023/04/30 12:10:39;;;;;;;10.48;6.20;;;15.30;52.10;;;;;;4800221;29;20101;-96
2023/04/30 12:13:06;;;;;;;11.45;5.70;;;15.00;52.60;;;;;;4797424;29;20058;-91
2023/04/30 12:15:33;;;;;;;11.65;6.45;;;14.80;51.40;;;;;;4809374;29;20051;-92
2023/04/30 12:18:12;;;;;;;11.87;5.97;;;14.60;52.10;;;;;;4809679;29;20054;-92
2023/04/30 12:20:40;;;;;;;11.60;5.57;;;14.50;52.80;;;;;;4809532;29;20513;-91
2023/04/30 12:40:57;;;;;;;7.45;4.03;;;15.60;47.70;;;;;;4807191;29;20068;-92
2023/04/30 12:43:30;;;;;;;10.90;5.05;;;15.60;48.70;;;;;;4791776;29;20062;-92
2023/04/30 12:45:57;;;;;;;10.38;5.72;;;15.60;49.00;;;;;;4806910;29;20044;-91
2023/04/30 12:48:25;;;;;;;9.07;5.10;;;15.50;49.40;;;;;;4814278;29;20049;-92
2023/04/30 12:50:54;;;;;;;10.23;4.90;;;15.60;51.90;;;;;;4814123;29;20167;-92
2023/04/30 12:53:22;;;;;;;9.70;5.28;;;15.80;49.50;;;;;;4823186;29;20493;-91
2023/04/30 12:56:10;;;;;;;11.27;5.47;;;15.80;49.70;;;;;;4821915;29;20050;-91
2023/04/30 12:58:44;;;;;;;8.63;4.70;;;16.00;48.30;;;;;;4813879;29;20584;-91
2023/04/30 13:01:12;;;;;;;10.32;5.32;;;16.00;48.70;;;;;;4821907;29;20144;-90
2023/04/30 13:03:40;;;;;;;9.73;5.03;;;16.10;48.70;;;;;;4817695;29;20050;-91
2023/04/30 13:06:09;;;;;;;9.75;5.05;;;16.00;48.00;;;;;;4808942;29;20046;-91
2023/04/30 13:08:36;;;;;;;12.32;5.15;;;15.80;49.20;;;;;;4808771;29;20050;-91
2023/04/30 13:11:23;;;;;;;12.02;5.38;;;15.70;50.40;;;;;;4814517;29;20053;-90